CVLO2: Caney R. Collinsville,Ok

                                SHEF ID:       CVLO2     Caney River near Collinsville, O
STATION TYPE:
Regulating: Stage = 26.00, Flow = 13763

PRECIP STAGE RIV-FLOW BAT-LOAD
in ft cfs volt
Ccp-Rev Ccp-Rev Ccp-Rev Ccp-Rev
(America/Chicago)
07/17 00:00 0.00 11.76 3026 12.40
07/17 01:00 0.00 11.68 2969 12.40
07/17 02:00 0.00 11.62 2926 12.40
07/17 03:00 0.00 11.56 2883 12.38
07/17 04:00 0.00 11.51 2848 12.37
07/17 05:00 0.00 11.46 2813 12.37
07/17 06:00 0.00 11.42 2784 12.35
07/17 07:00 0.00 11.37 2749 12.34
07/17 08:00 0.00 11.34 2728 12.33
07/17 09:00 0.00 11.30 2700 12.37
07/17 10:00 0.00 11.27 2679 12.82
07/17 11:00 0.00 11.25 2665 12.84
07/17 12:00 0.00 11.23 2651 13.07
07/17 13:00 0.00 11.20 2631 12.86
07/17 14:00 0.00 11.19 2624 12.83
07/17 15:00 0.00 11.18 2617 12.89
07/17 16:00 0.00 11.16 2603 12.86
07/17 17:00 0.00 11.14 2589 12.87
07/17 18:00 0.00 11.14 2589 12.93
07/17 19:00 0.02 11.14 2589 12.65
07/17 20:00 0.00 11.12 2575 12.51
07/17 21:00 0.00 11.13 2582 12.42
07/17 22:00 0.00 11.12 2575 12.44
07/17 23:00 0.00 11.12 2575 12.44
Data processed at Sat 18Jul2026 04:44 GMT

NOTICE: If you are parsing this page

Please convert to using our Data API. Starting early 2026 we will be migrating to: https://water.usace.army.mil with modern pages rendered in JavaScript. When this migration completes you will no longer be able to scrape this page! CWMSDataAPI (CDA)

Timeseries IDs (TSIDs)

TSIDs used from left to right in the data table
COLL.Precip-Inc.Total.1Hour.1Hour.Ccp-Rev
COLL.Stage.Inst.1Hour.0.Ccp-Rev
COLL.Flow.Inst.1Hour.0.Ccp-Rev
COLL.Volt-Battery Load.Inst.1Hour.0.Ccp-Rev

                            

All information presented herein is the property of the government of the United States of America and may be revised or deleted at any time without prior notice. Dissemination of this information without the expressed written consent of the Public Affairs Office, Tulsa District U.S. Army Corps of Engineers is strictly prohibited. These data are gathered electronically and, as presented, have NOT undergone any form of quality control. These data are NOT guaranteed to be valid or correct.